Time;durP1;ratioP1;P1;durP2;ratioP2;P2;SDS_P1;SDS_P2;PMS_P1;PMS_P2;Temp;Humidity;BMP_temperature;BMP_pressure;BME280_temperature;BME280_humidity;BME280_pressure;Samples;Min_cycle;Max_cycle;Signal;HPM_P1;HPM_P2
2022/06/23 00:00:45;;;;;;;;;;;19.60;99.90;;;;;;5033090;28;19975;-72
2022/06/23 00:03:17;;;;;;;;;;;19.60;99.90;;;;;;5032638;28;19971;-72
2022/06/23 00:05:47;;;;;;;;;;;19.60;99.90;;;;;;5032662;28;19932;-71
2022/06/23 00:08:15;;;;;;;;;;;19.70;99.90;;;;;;5032960;28;19925;-71
2022/06/23 00:10:47;;;;;;;;;;;19.60;99.90;;;;;;5032697;28;19925;-71
2022/06/23 00:13:14;;;;;;;;;;;19.50;99.90;;;;;;5032603;28;19932;-71
2022/06/23 00:15:43;;;;;;;;;;;19.30;99.90;;;;;;5032430;28;19925;-71
2022/06/23 00:18:16;;;;;;;;;;;19.30;99.90;;;;;;5032559;28;19929;-71
2022/06/23 00:20:45;;;;;;;;;;;19.40;99.90;;;;;;5032837;28;19925;-72
2022/06/23 00:23:14;;;;;;;;;;;19.30;99.90;;;;;;5032612;28;19925;-71
2022/06/23 00:25:44;;;;;;;;;;;19.20;99.90;;;;;;5032317;28;19925;-71
2022/06/23 00:28:16;;;;;;;;;;;19.10;99.90;;;;;;5032465;28;19925;-71
2022/06/23 00:30:43;;;;;;;;;;;19.10;99.90;;;;;;5032027;28;19925;-71
2022/06/23 00:33:16;;;;;;;;;;;19.00;99.90;;;;;;5032114;28;20390;-71
2022/06/23 00:35:43;;;;;;;;;;;18.90;99.90;;;;;;5032574;28;19926;-71
2022/06/23 00:38:18;;;;;;;;;;;18.90;99.90;;;;;;5032321;28;19929;-71
2022/06/23 00:40:46;;;;;;;;;;;19.00;99.90;;;;;;5032380;28;19929;-71
2022/06/23 00:43:13;;;;;;;;;;;19.10;99.90;;;;;;5032445;28;19929;-71
2022/06/23 00:45:44;;;;;;;;;;;19.20;99.90;;;;;;5032126;28;19972;-71
2022/06/23 00:48:13;;;;;;;;;;;19.20;99.90;;;;;;5032161;28;19925;-72
2022/06/23 00:50:45;;;;;;;;;;;18.90;99.90;;;;;;5031906;28;19925;-71
2022/06/23 00:53:16;;;;;;;;;;;18.70;99.90;;;;;;5031935;28;19994;-72
2022/06/23 00:55:46;;;;;;;;;;;18.80;99.90;;;;;;5032113;28;20360;-71
2022/06/23 00:58:19;;;;;;;;;;;18.80;99.90;;;;;;5032391;28;19925;-71
2022/06/23 01:00:46;;;;;;;;;;;18.50;99.90;;;;;;5032087;28;19971;-71
2022/06/23 01:03:16;;;;;;;;;;;18.60;99.90;;;;;;5031864;28;20412;-71
2022/06/23 01:05:46;;;;;;;;;;;18.60;99.90;;;;;;5031693;28;19972;-71
2022/06/23 01:08:16;;;;;;;;;;;18.60;99.90;;;;;;5032230;28;19929;-72
2022/06/23 01:10:45;;;;;;;;;;;18.60;99.90;;;;;;5031969;28;19980;-71
2022/06/23 01:13:14;;;;;;;;;;;18.60;99.90;;;;;;5031828;28;20324;-71
2022/06/23 01:15:45;;;;;;;;;;;18.70;99.90;;;;;;5031772;28;19932;-71
2022/06/23 01:18:16;;;;;;;;;;;18.60;99.90;;;;;;5031757;28;19925;-71
2022/06/23 01:20:47;;;;;;;;;;;18.60;99.90;;;;;;5031858;28;19925;-71
2022/06/23 01:23:27;;;;;;;;;;;18.50;99.90;;;;;;5031817;28;19925;-71
2022/06/23 01:26:01;;;;;;;;;;;18.40;99.90;;;;;;5031753;28;19979;-71
2022/06/23 01:28:30;;;;;;;;;;;18.50;99.90;;;;;;5031837;28;20355;-72
2022/06/23 01:31:02;;;;;;;;;;;18.60;99.90;;;;;;5031695;28;19925;-71
2022/06/23 01:33:31;;;;;;;;;;;18.40;99.90;;;;;;5031696;28;19929;-71
2022/06/23 01:36:00;;;;;;;;;;;18.30;99.90;;;;;;5031508;28;19933;-71
2022/06/23 01:38:34;;;;;;;;;;;18.30;99.90;;;;;;5031927;28;19933;-71
2022/06/23 01:41:11;;;;;;;;;;;18.30;99.90;;;;;;5031463;28;19925;-71
2022/06/23 01:43:41;;;;;;;;;;;18.30;99.90;;;;;;5034488;28;19925;-71
2022/06/23 01:46:11;;;;;;;;;;;18.20;99.90;;;;;;5035071;28;19925;-72
2022/06/23 01:48:53;;;;;;;;;;;18.40;99.90;;;;;;5035475;28;20381;-72
2022/06/23 01:51:23;;;;;;;;;;;18.40;99.90;;;;;;5035234;28;20321;-72
2022/06/23 01:53:50;;;;;;;;;;;18.40;99.90;;;;;;5035543;28;19975;-71
2022/06/23 01:56:34;;;;;;;;;;;18.20;99.90;;;;;;5035271;28;19925;-72
2022/06/23 01:59:10;;;;;;;;;;;18.30;99.90;;;;;;5035566;28;20322;-71
2022/06/23 02:01:42;;;;;;;;;;;18.30;99.90;;;;;;5035112;28;19925;-71
2022/06/23 02:04:11;;;;;;;;;;;18.40;99.90;;;;;;5035590;28;19933;-71
2022/06/23 02:06:44;;;;;;;;;;;18.30;99.90;;;;;;5035033;28;19979;-71
2022/06/23 02:09:13;;;;;;;;;;;18.10;99.90;;;;;;5035081;28;20448;-71
2022/06/23 02:11:48;;;;;;;;;;;17.90;99.90;;;;;;5034944;28;19929;-71
2022/06/23 02:14:21;;;;;;;;;;;17.90;99.90;;;;;;5035033;28;19987;-71
2022/06/23 02:16:50;;;;;;;;;;;17.90;99.90;;;;;;5034733;28;20361;-71
2022/06/23 02:19:22;;;;;;;;;;;17.80;99.90;;;;;;5034850;28;19980;-71
2022/06/23 02:21:50;;;;;;;;;;;17.80;99.90;;;;;;5034683;28;19994;-72
2022/06/23 02:24:21;;;;;;;;;;;17.80;99.90;;;;;;5034785;28;19925;-71
2022/06/23 02:26:55;;;;;;;;;;;17.80;99.90;;;;;;5034775;28;19948;-71
2022/06/23 02:29:25;;;;;;;;;;;18.00;99.90;;;;;;5034826;28;19925;-71
2022/06/23 02:31:53;;;;;;;;;;;17.90;99.90;;;;;;5034541;28;19929;-71
2022/06/23 02:34:26;;;;;;;;;;;17.80;99.90;;;;;;5034610;28;19925;-71
2022/06/23 02:37:02;;;;;;;;;;;17.70;99.90;;;;;;5034546;28;19925;-71
2022/06/23 02:39:32;;;;;;;;;;;17.60;99.90;;;;;;5034459;28;19979;-71
2022/06/23 02:42:02;;;;;;;;;;;17.50;99.90;;;;;;5034205;28;19925;-71
2022/06/23 02:44:41;;;;;;;;;;;17.60;99.90;;;;;;5034338;28;19929;-71
2022/06/23 02:47:17;;;;;;;;;;;17.50;99.90;;;;;;5034357;28;19925;-71
2022/06/23 02:49:55;;;;;;;;;;;17.70;99.90;;;;;;5034133;28;19925;-71
2022/06/23 02:52:36;;;;;;;;;;;17.70;99.90;;;;;;5034444;28;19972;-71
2022/06/23 02:55:15;;;;;;;;;;;17.70;99.90;;;;;;5033171;28;19925;-70
2022/06/23 02:57:45;;;;;;;;;;;17.70;99.90;;;;;;5034177;28;20341;-70
2022/06/23 03:00:18;;;;;;;;;;;17.80;99.90;;;;;;5033960;28;19971;-70
2022/06/23 03:02:59;;;;;;;;;;;17.70;99.90;;;;;;5034060;28;19925;-70
2022/06/23 03:05:30;;;;;;;;;;;17.80;99.90;;;;;;5033976;28;20381;-70
2022/06/23 03:07:59;;;;;;;;;;;17.70;99.90;;;;;;5034098;28;19925;-70
2022/06/23 03:10:29;;;;;;;;;;;17.40;99.90;;;;;;5034012;28;19956;-69
2022/06/23 03:12:58;;;;;;;;;;;17.30;99.90;;;;;;5033804;28;19929;-69
2022/06/23 03:15:28;;;;;;;;;;;17.30;99.90;;;;;;5033977;28;19925;-69
2022/06/23 03:17:57;;;;;;;;;;;17.50;99.90;;;;;;5033816;28;19948;-70
2022/06/23 03:20:29;;;;;;;;;;;17.60;99.90;;;;;;5033702;28;20390;-70
2022/06/23 03:22:58;;;;;;;;;;;17.60;99.90;;;;;;5033906;28;19925;-70
2022/06/23 03:25:27;;;;;;;;;;;17.50;99.90;;;;;;5033512;28;19979;-72
2022/06/23 03:27:57;;;;;;;;;;;17.40;99.90;;;;;;5033608;28;19925;-71
2022/06/23 03:30:28;;;;;;;;;;;17.30;99.90;;;;;;5033627;28;19925;-71
2022/06/23 03:32:57;;;;;;;;;;;17.20;99.90;;;;;;5033407;28;19925;-70
2022/06/23 03:35:26;;;;;;;;;;;17.20;99.90;;;;;;5033718;28;19932;-70
2022/06/23 03:38:00;;;;;;;;;;;17.40;99.90;;;;;;5033358;28;19925;-70
2022/06/23 03:43:17;;;;;;;;;;;17.50;99.90;;;;;;5033185;28;19936;-71
2022/06/23 03:45:47;;;;;;;;;;;17.50;99.90;;;;;;5033156;28;19932;-70
2022/06/23 03:48:18;;;;;;;;;;;17.40;99.90;;;;;;5033106;28;19960;-70
2022/06/23 03:50:47;;;;;;;;;;;17.20;99.90;;;;;;5033039;28;19925;-70
2022/06/23 03:53:17;;;;;;;;;;;17.30;99.90;;;;;;5032894;28;20401;-69
2022/06/23 03:55:47;;;;;;;;;;;17.30;99.90;;;;;;5033207;28;19971;-69
2022/06/23 03:58:16;;;;;;;;;;;17.50;99.90;;;;;;5033036;28;20031;-70
2022/06/23 04:00:44;;;;;;;;;;;17.60;99.90;;;;;;5032959;28;19964;-70
2022/06/23 04:03:23;;;;;;;;;;;17.70;99.90;;;;;;5032834;28;20368;-71
2022/06/23 04:06:10;;;;;;;;;;;17.40;99.90;;;;;;5032545;28;20344;-70
2022/06/23 04:08:43;;;;;;;;;;;17.40;99.90;;;;;;5032872;28;19979;-70
2022/06/23 04:13:54;;;;;;;;;;;17.50;99.90;;;;;;5031516;28;20334;-70
2022/06/23 04:16:22;;;;;;;;;;;17.60;99.90;;;;;;5032467;28;19975;-71
2022/06/23 04:18:50;;;;;;;;;;;17.60;99.90;;;;;;5032719;28;19984;-71
2022/06/23 04:21:19;;;;;;;;;;;17.60;99.90;;;;;;5033262;28;20356;-71
2022/06/23 04:23:49;;;;;;;;;;;17.60;99.90;;;;;;5032614;28;19929;-69
2022/06/23 04:26:18;;;;;;;;;;;17.60;99.90;;;;;;5032725;28;20003;-71
2022/06/23 04:28:46;;;;;;;;;;;17.70;99.90;;;;;;5032368;28;19987;-71
2022/06/23 04:31:16;;;;;;;;;;;17.70;99.90;;;;;;5032458;28;19925;-71
2022/06/23 04:33:43;;;;;;;;;;;17.70;99.90;;;;;;5032183;28;19925;-71
2022/06/23 04:36:18;;;;;;;;;;;17.80;99.90;;;;;;5032406;28;19933;-71
2022/06/23 04:38:48;;;;;;;;;;;17.80;99.90;;;;;;5032385;28;20490;-70
2022/06/23 04:41:17;;;;;;;;;;;17.90;99.90;;;;;;5032543;28;19925;-70
2022/06/23 04:43:47;;;;;;;;;;;18.00;99.90;;;;;;5032183;28;20373;-71
2022/06/23 04:46:15;;;;;;;;;;;18.00;99.90;;;;;;5032333;28;19924;-70
2022/06/23 04:48:45;;;;;;;;;;;18.10;99.90;;;;;;5032189;28;19979;-69
2022/06/23 04:51:20;;;;;;;;;;;18.10;99.90;;;;;;5032098;28;19972;-70
2022/06/23 04:53:52;;;;;;;;;;;18.20;99.90;;;;;;5032413;28;19979;-70
2022/06/23 04:56:21;;;;;;;;;;;18.40;99.90;;;;;;5031939;28;19932;-69
2022/06/23 04:58:56;;;;;;;;;;;18.50;99.90;;;;;;5031930;28;19971;-72
2022/06/23 05:01:24;;;;;;;;;;;18.60;99.90;;;;;;5031999;28;20360;-70
2022/06/23 05:03:53;;;;;;;;;;;18.60;99.90;;;;;;5032025;28;19929;-70
2022/06/23 05:06:26;;;;;;;;;;;18.60;99.90;;;;;;5032132;28;19936;-70
2022/06/23 05:08:53;;;;;;;;;;;18.80;99.90;;;;;;5031861;28;19925;-70
2022/06/23 05:11:23;;;;;;;;;;;18.80;99.90;;;;;;5031657;28;19925;-70
2022/06/23 05:13:51;;;;;;;;;;;18.80;99.90;;;;;;5031686;28;20376;-70
2022/06/23 05:16:22;;;;;;;;;;;19.00;99.90;;;;;;5031710;28;19933;-70
2022/06/23 05:18:51;;;;;;;;;;;19.00;99.90;;;;;;5035391;28;19979;-70
2022/06/23 05:21:19;;;;;;;;;;;19.10;99.90;;;;;;5035899;28;20360;-70
2022/06/23 05:23:51;;;;;;;;;;;19.10;99.90;;;;;;5035692;28;19987;-70
2022/06/23 05:26:21;;;;;;;;;;;19.20;99.90;;;;;;5036046;28;20020;-72
2022/06/23 05:28:50;;;;;;;;;;;19.20;99.90;;;;;;5035724;28;19925;-72
2022/06/23 05:31:21;;;;;;;;;;;19.30;99.90;;;;;;5035571;28;20378;-72
2022/06/23 05:33:48;;;;;;;;;;;19.30;99.90;;;;;;5035450;28;19940;-72
2022/06/23 05:36:17;;;;;;;;;;;19.30;99.90;;;;;;5036187;28;19925;-70
2022/06/23 05:38:47;;;;;;;;;;;19.40;99.90;;;;;;5035761;28;20012;-70
2022/06/23 05:41:19;;;;;;;;;;;19.60;99.90;;;;;;5035589;28;19925;-70
2022/06/23 05:43:47;;;;;;;;;;;19.60;99.90;;;;;;5035433;28;19986;-70
2022/06/23 05:46:17;;;;;;;;;;;19.70;99.90;;;;;;5035188;28;20444;-70
2022/06/23 05:48:46;;;;;;;;;;;19.80;99.90;;;;;;5036018;28;19925;-70
2022/06/23 05:51:15;;;;;;;;;;;19.90;99.90;;;;;;5035811;28;19929;-70
2022/06/23 05:53:57;;;;;;;;;;;19.90;99.90;;;;;;5035590;28;20389;-70
2022/06/23 05:56:29;;;;;;;;;;;20.00;99.90;;;;;;5035502;28;20355;-70
2022/06/23 05:58:59;;;;;;;;;;;20.00;99.90;;;;;;5035355;28;19925;-72
2022/06/23 06:01:29;;;;;;;;;;;20.00;99.90;;;;;;5035277;28;19929;-72
2022/06/23 06:04:00;;;;;;;;;;;20.20;99.90;;;;;;5035048;28;20305;-72
2022/06/23 06:06:27;;;;;;;;;;;20.40;99.90;;;;;;5035092;28;19925;-71
2022/06/23 06:11:42;;;;;;;;;;;20.60;99.90;;;;;;5035191;28;20352;-72
2022/06/23 06:14:13;;;;;;;;;;;20.70;99.90;;;;;;5035065;28;19932;-72
2022/06/23 06:16:40;;;;;;;;;;;20.80;99.90;;;;;;5034777;28;19969;-72
2022/06/23 06:19:07;;;;;;;;;;;20.80;99.90;;;;;;5035229;28;19948;-70
2022/06/23 06:21:34;;;;;;;;;;;20.80;99.90;;;;;;5034863;28;20427;-70
2022/06/23 06:24:04;;;;;;;;;;;20.90;99.90;;;;;;5035017;28;19978;-70
2022/06/23 06:26:32;;;;;;;;;;;21.00;99.90;;;;;;5034664;28;19925;-70
2022/06/23 06:29:06;;;;;;;;;;;21.00;99.90;;;;;;5033329;28;19926;-70
2022/06/23 06:31:35;;;;;;;;;;;21.20;99.90;;;;;;5034915;28;19925;-70
2022/06/23 06:34:04;;;;;;;;;;;21.30;99.90;;;;;;5034743;28;19975;-71
2022/06/23 06:36:34;;;;;;;;;;;21.40;99.90;;;;;;5034894;28;19925;-70
2022/06/23 06:39:03;;;;;;;;;;;21.60;99.90;;;;;;5034868;28;19925;-70
2022/06/23 06:41:30;;;;;;;;;;;21.80;99.90;;;;;;5034521;28;20460;-70
2022/06/23 06:43:58;;;;;;;;;;;21.90;99.90;;;;;;5034493;28;19987;-70
2022/06/23 06:46:26;;;;;;;;;;;22.00;99.90;;;;;;5034487;28;19929;-70
2022/06/23 06:48:53;;;;;;;;;;;21.90;99.90;;;;;;5034903;28;19926;-70
2022/06/23 06:51:22;;;;;;;;;;;21.90;99.90;;;;;;5034375;28;19971;-70
2022/06/23 06:53:51;;;;;;;;;;;21.80;99.90;;;;;;5034635;28;19932;-70
2022/06/23 06:56:20;;;;;;;;;;;21.70;99.90;;;;;;5034070;28;19925;-72
2022/06/23 06:58:50;;;;;;;;;;;21.50;99.90;;;;;;5034383;28;19928;-71
2022/06/23 07:01:20;;;;;;;;;;;21.50;99.90;;;;;;5034225;28;20294;-72
2022/06/23 07:03:51;;;;;;;;;;;21.70;99.90;;;;;;5034032;28;19932;-71
2022/06/23 07:06:22;;;;;;;;;;;21.70;99.90;;;;;;5034272;28;20008;-71
2022/06/23 07:08:52;;;;;;;;;;;22.10;99.90;;;;;;5034311;28;19925;-71
2022/06/23 07:11:22;;;;;;;;;;;22.20;99.90;;;;;;5034206;28;19925;-72
2022/06/23 07:13:51;;;;;;;;;;;22.50;99.90;;;;;;5033778;28;19925;-72
2022/06/23 07:16:22;;;;;;;;;;;22.40;99.90;;;;;;5033744;28;20337;-71
2022/06/23 07:18:54;;;;;;;;;;;22.30;99.90;;;;;;5033772;28;19925;-70
2022/06/23 07:21:24;;;;;;;;;;;22.40;99.90;;;;;;5033669;28;19932;-70
2022/06/23 07:23:53;;;;;;;;;;;22.70;99.90;;;;;;5033421;28;20378;-70
2022/06/23 07:26:36;;;;;;;;;;;22.70;99.90;;;;;;5033644;28;19971;-70
2022/06/23 07:29:08;;;;;;;;;;;22.90;99.90;;;;;;5033678;28;19925;-70
2022/06/23 07:31:46;;;;;;;;;;;22.70;99.90;;;;;;5033904;28;19925;-70
2022/06/23 07:34:16;;;;;;;;;;;22.70;99.90;;;;;;5033416;28;19936;-72
2022/06/23 07:36:46;;;;;;;;;;;22.80;99.90;;;;;;5033209;28;20411;-72
2022/06/23 07:39:16;;;;;;;;;;;23.00;99.90;;;;;;5033851;28;19936;-70
2022/06/23 07:41:48;;;;;;;;;;;23.00;99.90;;;;;;5032945;28;19933;-71
2022/06/23 07:44:18;;;;;;;;;;;23.10;99.90;;;;;;5033502;28;19971;-72
2022/06/23 07:46:45;;;;;;;;;;;23.10;99.90;;;;;;5032873;28;19925;-71
2022/06/23 07:49:12;;;;;;;;;;;23.60;99.90;;;;;;5033138;28;19932;-72
2022/06/23 07:51:41;;;;;;;;;;;23.80;99.90;;;;;;5033123;28;19925;-71
2022/06/23 07:54:08;;;;;;;;;;;23.90;99.90;;;;;;5032755;28;20374;-72
2022/06/23 07:56:37;;;;;;;;;;;23.80;99.90;;;;;;5032706;28;19979;-71
2022/06/23 07:59:07;;;;;;;;;;;23.80;99.90;;;;;;5033267;28;19964;-72
2022/06/23 08:01:36;;;;;;;;;;;23.90;99.90;;;;;;5032905;28;20340;-72
2022/06/23 08:04:08;;;;;;;;;;;24.20;99.90;;;;;;5032754;28;20003;-71
2022/06/23 08:06:36;;;;;;;;;;;24.00;99.90;;;;;;5032796;28;20436;-72
2022/06/23 08:09:08;;;;;;;;;;;24.50;99.90;;;;;;5032871;28;20363;-70
2022/06/23 08:14:23;;;;;;;;;;;24.80;99.90;;;;;;5032928;28;20320;-72
2022/06/23 08:16:49;;;;;;;;;;;24.80;99.90;;;;;;5032499;28;20381;-72
2022/06/23 08:19:18;;;;;;;;;;;25.30;99.90;;;;;;5032570;28;19921;-72
2022/06/23 08:21:47;;;;;;;;;;;25.00;99.90;;;;;;5032943;28;19983;-71
2022/06/23 08:24:17;;;;;;;;;;;25.00;99.90;;;;;;5032413;28;19926;-72
2022/06/23 08:26:47;;;;;;;;;;;25.50;99.90;;;;;;5032766;28;19932;-72
2022/06/23 08:29:15;;;;;;;;;;;25.90;99.90;;;;;;5032697;28;19924;-71
2022/06/23 08:31:43;;;;;;;;;;;25.40;99.90;;;;;;5032379;28;20368;-71
2022/06/23 08:34:11;;;;;;;;;;;25.80;99.90;;;;;;5032230;28;19925;-71
2022/06/23 08:36:40;;;;;;;;;;;26.50;99.90;;;;;;5032146;28;19933;-72
2022/06/23 08:39:11;;;;;;;;;;;27.50;99.90;;;;;;5032355;28;19971;-71
2022/06/23 08:41:42;;;;;;;;;;;27.90;99.90;;;;;;5032572;28;19948;-70
2022/06/23 08:44:11;;;;;;;;;;;28.60;99.90;;;;;;5032304;28;19972;-71
2022/06/23 08:46:40;;;;;;;;;;;28.10;99.90;;;;;;5031917;28;19933;-72
2022/06/23 08:49:11;;;;;;;;;;;28.70;99.90;;;;;;5032158;28;19979;-71
2022/06/23 08:51:43;;;;;;;;;;;28.90;99.30;;;;;;5031501;28;20298;-70
2022/06/23 08:54:14;;;;;;;;;;;29.40;98.70;;;;;;5032023;28;20382;-70
2022/06/23 08:56:46;;;;;;;;;;;30.00;97.00;;;;;;5032121;28;19925;-70
2022/06/23 08:59:15;;;;;;;;;;;29.60;97.00;;;;;;5032031;28;19929;-71
2022/06/23 09:01:46;;;;;;;;;;;29.60;97.10;;;;;;5031896;28;19928;-70
2022/06/23 09:04:15;;;;;;;;;;;30.30;95.90;;;;;;5032109;28;19929;-70
2022/06/23 09:06:46;;;;;;;;;;;30.90;95.30;;;;;;5031881;28;19929;-70
2022/06/23 09:09:20;;;;;;;;;;;31.40;94.80;;;;;;5031894;28;20391;-68
2022/06/23 09:11:54;;;;;;;;;;;32.00;94.30;;;;;;5031741;28;19932;-68
2022/06/23 09:14:35;;;;;;;;;;;32.20;93.20;;;;;;5032067;28;19925;-68
2022/06/23 09:17:13;;;;;;;;;;;33.00;92.50;;;;;;5031688;28;19933;-68
2022/06/23 09:19:48;;;;;;;;;;;33.20;91.50;;;;;;5032544;28;20270;-68
2022/06/23 09:22:25;;;;;;;;;;;31.60;93.00;;;;;;5031672;28;20432;-68
2022/06/23 09:24:56;;;;;;;;;;;30.40;93.40;;;;;;5031516;28;19925;-68
2022/06/23 09:27:32;;;;;;;;;;;32.40;92.40;;;;;;5031948;28;19975;-68
2022/06/23 09:30:01;;;;;;;;;;;31.90;91.80;;;;;;5031764;28;19932;-69
2022/06/23 09:32:41;;;;;;;;;;;32.50;91.80;;;;;;5031503;28;20396;-68
2022/06/23 09:35:22;;;;;;;;;;;31.60;90.90;;;;;;5031563;28;19971;-67
2022/06/23 09:38:01;;;;;;;;;;;31.20;92.30;;;;;;5031953;28;20420;-68
2022/06/23 09:40:36;;;;;;;;;;;31.70;91.50;;;;;;5031700;28;19925;-68
2022/06/23 09:43:24;;;;;;;;;;;32.50;90.70;;;;;;5031288;28;20142;-68
2022/06/23 09:46:00;;;;;;;;;;;33.10;88.90;;;;;;5031365;28;19979;-68
2022/06/23 09:48:44;;;;;;;;;;;34.50;86.90;;;;;;5031547;28;19933;-68
2022/06/23 09:51:21;;;;;;;;;;;33.80;88.10;;;;;;5030989;28;19972;-68
2022/06/23 09:54:05;;;;;;;;;;;32.80;89.80;;;;;;5031611;28;19932;-68
2022/06/23 09:57:02;;;;;;;;;;;32.40;90.60;;;;;;5031445;28;19932;-68
2022/06/23 09:59:42;;;;;;;;;;;32.60;90.70;;;;;;4989765;28;20406;-68
2022/06/23 10:02:15;;;;;;;;;;;34.40;88.00;;;;;;5024781;28;19925;-68
2022/06/23 10:04:50;;;;;;;;;;;33.50;86.60;;;;;;5034001;28;19925;-68
2022/06/23 10:07:22;;;;;;;;;;;35.10;86.10;;;;;;5035044;28;19925;-68
2022/06/23 10:09:56;;;;;;;;;;;35.50;83.60;;;;;;5034955;28;19932;-68
2022/06/23 10:12:31;;;;;;;;;;;34.20;84.90;;;;;;5034782;28;19979;-68
2022/06/23 10:15:05;;;;;;;;;;;34.60;85.20;;;;;;5034703;28;19925;-68
2022/06/23 10:17:46;;;;;;;;;;;33.00;86.30;;;;;;5034907;28;20447;-68
2022/06/23 10:20:32;;;;;;;;;;;32.80;86.90;;;;;;5033167;28;19936;-69
2022/06/23 10:23:14;;;;;;;;;;;33.10;85.50;;;;;;5034873;28;20313;-69
2022/06/23 10:25:47;;;;;;;;;;;32.20;86.50;;;;;;5032900;28;20432;-69
2022/06/23 10:28:24;;;;;;;;;;;33.00;87.00;;;;;;5034807;28;20421;-69
2022/06/23 10:30:56;;;;;;;;;;;33.20;85.90;;;;;;5034833;28;19948;-69
2022/06/23 10:33:41;;;;;;;;;;;33.50;84.90;;;;;;5034532;28;19929;-68
2022/06/23 10:36:22;;;;;;;;;;;35.30;81.30;;;;;;5034157;28;20377;-69
2022/06/23 10:38:57;;;;;;;;;;;35.50;81.10;;;;;;5034853;28;20341;-69
2022/06/23 10:41:41;;;;;;;;;;;34.10;83.80;;;;;;5034496;28;19929;-69
2022/06/23 10:44:26;;;;;;;;;;;32.80;86.20;;;;;;5027339;28;19972;-69
2022/06/23 10:47:01;;;;;;;;;;;33.60;84.40;;;;;;5034397;28;20188;-69
2022/06/23 10:49:34;;;;;;;;;;;32.90;86.70;;;;;;5034234;28;19929;-70
2022/06/23 10:52:16;;;;;;;;;;;33.10;85.50;;;;;;5034287;28;19929;-70
2022/06/23 10:54:54;;;;;;;;;;;32.40;84.70;;;;;;5032644;28;19925;-70
2022/06/23 10:57:32;;;;;;;;;;;31.80;86.20;;;;;;5034280;28;20385;-70
2022/06/23 11:00:05;;;;;;;;;;;32.80;85.20;;;;;;5034116;28;19925;-70
2022/06/23 11:02:55;;;;;;;;;;;32.80;85.90;;;;;;5033990;28;19932;-70
2022/06/23 11:05:32;;;;;;;;;;;32.40;85.60;;;;;;5023306;28;19925;-70
2022/06/23 11:08:14;;;;;;;;;;;33.70;82.70;;;;;;5033960;28;19925;-71
2022/06/23 11:10:45;;;;;;;;;;;34.20;83.60;;;;;;5034002;28;19929;-70
2022/06/23 11:13:20;;;;;;;;;;;33.60;84.40;;;;;;5033770;28;20381;-70
2022/06/23 11:15:50;;;;;;;;;;;33.30;84.30;;;;;;5033295;28;19944;-69
2022/06/23 11:18:23;;;;;;;;;;;34.00;83.40;;;;;;5033896;28;20238;-70
2022/06/23 11:20:58;;;;;;;;;;;33.50;84.10;;;;;;5033716;28;19925;-70
2022/06/23 11:23:30;;;;;;;;;;;34.10;83.70;;;;;;5033630;28;19925;-70
2022/06/23 11:26:01;;;;;;;;;;;33.90;84.30;;;;;;5033487;28;19925;-70
2022/06/23 11:28:35;;;;;;;;;;;33.80;84.60;;;;;;5033640;28;19925;-70
2022/06/23 11:31:14;;;;;;;;;;;33.10;85.80;;;;;;5033623;28;20020;-70
2022/06/23 11:33:46;;;;;;;;;;;33.10;86.20;;;;;;5033331;28;19929;-70
2022/06/23 11:36:24;;;;;;;;;;;33.10;85.40;;;;;;5033383;28;20446;-69
2022/06/23 11:39:01;;;;;;;;;;;34.40;83.90;;;;;;5033559;28;19929;-70
2022/06/23 11:41:42;;;;;;;;;;;33.30;85.80;;;;;;5033553;28;19967;-70
2022/06/23 11:44:14;;;;;;;;;;;33.60;84.90;;;;;;5033425;28;20297;-70
2022/06/23 11:46:44;;;;;;;;;;;32.10;87.40;;;;;;5033190;28;20396;-70
2022/06/23 11:49:17;;;;;;;;;;;32.30;88.50;;;;;;5033408;28;19925;-70
2022/06/23 11:51:59;;;;;;;;;;;32.80;87.30;;;;;;5033203;28;19933;-69
2022/06/23 11:54:42;;;;;;;;;;;32.70;87.40;;;;;;5031228;28;19931;-70
2022/06/23 11:57:20;;;;;;;;;;;33.60;84.80;;;;;;5031407;28;20408;-70
2022/06/23 11:59:53;;;;;;;;;;;32.80;86.20;;;;;;5033391;28;19925;-69
2022/06/23 12:02:20;;;;;;;;;;;33.10;86.10;;;;;;5033374;28;19957;-70
2022/06/23 12:05:00;;;;;;;;;;;32.40;87.30;;;;;;5032851;28;19925;-70
2022/06/23 12:07:42;;;;;;;;;;;32.20;87.90;;;;;;5033024;28;19929;-70
2022/06/23 12:10:14;;;;;;;;;;;31.20;89.30;;;;;;5032982;28;19971;-70
2022/06/23 12:12:43;;;;;;;;;;;32.20;88.80;;;;;;5032759;28;20420;-70
2022/06/23 12:15:11;;;;;;;;;;;33.00;87.50;;;;;;5032289;28;19952;-68
2022/06/23 12:17:40;;;;;;;;;;;32.00;88.60;;;;;;5032611;28;19929;-68
2022/06/23 12:20:12;;;;;;;;;;;32.50;88.50;;;;;;5032683;28;19925;-68
2022/06/23 12:22:41;;;;;;;;;;;32.70;88.00;;;;;;5032676;28;19932;-68
2022/06/23 12:25:17;;;;;;;;;;;33.50;86.40;;;;;;5032227;28;19932;-68
2022/06/23 12:27:48;;;;;;;;;;;32.50;86.10;;;;;;5032562;28;20287;-68
2022/06/23 12:30:16;;;;;;;;;;;34.10;84.30;;;;;;5032738;28;19979;-68
2022/06/23 12:32:46;;;;;;;;;;;33.40;85.70;;;;;;5032285;28;19971;-69
2022/06/23 12:35:17;;;;;;;;;;;33.20;86.40;;;;;;5032252;28;19932;-69
2022/06/23 12:37:45;;;;;;;;;;;32.40;87.80;;;;;;5032440;28;19933;-68
2022/06/23 12:40:15;;;;;;;;;;;34.40;84.50;;;;;;5032440;28;19929;-68
2022/06/23 12:42:44;;;;;;;;;;;34.00;83.60;;;;;;5032182;28;19925;-68
2022/06/23 12:45:24;;;;;;;;;;;33.20;84.90;;;;;;5031858;28;19927;-68
2022/06/23 12:47:57;;;;;;;;;;;33.00;86.40;;;;;;5032461;28;19932;-68
2022/06/23 12:50:34;;;;;;;;;;;34.60;82.90;;;;;;5031998;28;19971;-68
2022/06/23 12:53:18;;;;;;;;;;;33.10;84.10;;;;;;5032332;28;19932;-68
2022/06/23 12:55:55;;;;;;;;;;;31.60;88.00;;;;;;5031731;28;19925;-68
2022/06/23 12:58:24;;;;;;;;;;;32.00;87.90;;;;;;5032181;28;19929;-68
2022/06/23 13:00:57;;;;;;;;;;;34.00;84.80;;;;;;5031958;28;20361;-68
2022/06/23 13:03:27;;;;;;;;;;;34.40;82.70;;;;;;5032046;28;20337;-69
2022/06/23 13:05:57;;;;;;;;;;;32.30;86.40;;;;;;5031905;28;19976;-68
2022/06/23 13:08:26;;;;;;;;;;;32.60;86.00;;;;;;5032007;28;20337;-68
2022/06/23 13:10:55;;;;;;;;;;;33.60;84.90;;;;;;5031869;28;19930;-68
2022/06/23 13:13:23;;;;;;;;;;;33.80;84.50;;;;;;5031894;28;19926;-68
2022/06/23 13:15:52;;;;;;;;;;;33.80;83.60;;;;;;5031949;28;20278;-68
2022/06/23 13:18:24;;;;;;;;;;;33.20;84.80;;;;;;5032210;28;19925;-68
2022/06/23 13:20:54;;;;;;;;;;;33.30;83.80;;;;;;5032134;28;19926;-68
2022/06/23 13:23:22;;;;;;;;;;;34.10;83.50;;;;;;5031818;28;19925;-68
2022/06/23 13:25:50;;;;;;;;;;;34.80;81.10;;;;;;5031526;28;19925;-68
2022/06/23 13:28:26;;;;;;;;;;;34.40;82.40;;;;;;5031881;28;19929;-69
2022/06/23 13:30:54;;;;;;;;;;;33.60;83.90;;;;;;5032020;28;19929;-69
2022/06/23 13:33:24;;;;;;;;;;;33.40;83.90;;;;;;5031827;28;20385;-69
2022/06/23 13:35:54;;;;;;;;;;;32.90;84.70;;;;;;5032238;28;19960;-69
2022/06/23 13:38:24;;;;;;;;;;;33.20;85.00;;;;;;5032359;28;19979;-69
2022/06/23 13:40:53;;;;;;;;;;;34.30;81.50;;;;;;5035607;28;19932;-70
2022/06/23 13:43:27;;;;;;;;;;;34.60;81.90;;;;;;5035863;28;19933;-70
2022/06/23 13:45:57;;;;;;;;;;;36.10;80.00;;;;;;5035276;28;19932;-70
2022/06/23 13:48:29;;;;;;;;;;;34.40;80.50;;;;;;5035720;28;19948;-69
2022/06/23 13:50:59;;;;;;;;;;;34.00;82.30;;;;;;5035591;28;19926;-68
2022/06/23 13:53:29;;;;;;;;;;;32.90;84.10;;;;;;5035335;28;20400;-68
2022/06/23 13:55:59;;;;;;;;;;;34.20;82.50;;;;;;5035367;28;19925;-68
2022/06/23 13:58:27;;;;;;;;;;;34.90;81.40;;;;;;5035357;28;19925;-68
2022/06/23 14:00:57;;;;;;;;;;;35.30;81.00;;;;;;5034995;28;19925;-68
2022/06/23 14:03:34;;;;;;;;;;;35.10;79.90;;;;;;5035338;28;20020;-68
2022/06/23 14:06:04;;;;;;;;;;;34.60;80.80;;;;;;5035274;28;19932;-68
2022/06/23 14:08:33;;;;;;;;;;;35.20;79.70;;;;;;5034850;28;20385;-69
2022/06/23 14:11:02;;;;;;;;;;;33.80;82.40;;;;;;5035101;28;19976;-68
2022/06/23 14:13:31;;;;;;;;;;;33.00;83.90;;;;;;5035140;28;19987;-68
2022/06/23 14:16:01;;;;;;;;;;;33.30;84.70;;;;;;5034929;28;20467;-68
2022/06/23 14:18:34;;;;;;;;;;;33.20;84.50;;;;;;5035355;28;19926;-69
2022/06/23 14:21:09;;;;;;;;;;;33.60;82.70;;;;;;5034931;28;19925;-68
2022/06/23 14:23:42;;;;;;;;;;;32.90;84.40;;;;;;5034861;28;19979;-68
2022/06/23 14:26:11;;;;;;;;;;;33.20;83.80;;;;;;5034766;28;19932;-69
2022/06/23 14:28:42;;;;;;;;;;;33.60;83.50;;;;;;5034823;28;19929;-68
2022/06/23 14:31:11;;;;;;;;;;;34.50;81.50;;;;;;5034697;28;19979;-68
2022/06/23 14:33:42;;;;;;;;;;;33.20;82.90;;;;;;5034500;28;19929;-68
2022/06/23 14:36:12;;;;;;;;;;;33.20;83.50;;;;;;5034619;28;20206;-68
2022/06/23 14:38:44;;;;;;;;;;;33.20;83.40;;;;;;5034597;28;19980;-68
2022/06/23 14:41:18;;;;;;;;;;;33.40;82.20;;;;;;5034603;28;19929;-69
2022/06/23 14:43:51;;;;;;;;;;;33.20;83.70;;;;;;5034240;28;19953;-68
2022/06/23 14:46:22;;;;;;;;;;;33.70;83.00;;;;;;5034466;28;20364;-70
2022/06/23 14:49:06;;;;;;;;;;;34.40;82.60;;;;;;5034646;28;20370;-70
2022/06/23 14:51:35;;;;;;;;;;;34.00;81.10;;;;;;5033437;28;20011;-69
2022/06/23 14:54:04;;;;;;;;;;;33.70;81.50;;;;;;5034552;28;19983;-70